createdAt,value
2018-09-10T00:00:16.479Z,1015.25
2018-09-10T00:01:16.477Z,1015.35
2018-09-10T00:02:16.474Z,1015.33
2018-09-10T00:03:16.471Z,1015.31
2018-09-10T00:04:16.475Z,1015.34
2018-09-10T00:05:16.470Z,1015.36
2018-09-10T00:06:16.468Z,1015.34
2018-09-10T00:07:16.463Z,1015.34
2018-09-10T00:08:16.468Z,1015.35
2018-09-10T00:09:16.461Z,1015.31
2018-09-10T00:10:16.460Z,1015.33
2018-09-10T00:11:16.459Z,1015.32
2018-09-10T00:12:16.450Z,1015.32
2018-09-10T00:13:16.447Z,1015.36
2018-09-10T00:14:16.446Z,1015.38
2018-09-10T00:15:16.444Z,1015.30
2018-09-10T00:16:16.448Z,1015.30
2018-09-10T00:17:16.446Z,1015.36
2018-09-10T00:18:16.442Z,1015.30
2018-09-10T00:19:16.444Z,1015.30
2018-09-10T00:20:16.434Z,1015.27
2018-09-10T00:21:16.430Z,1015.23
2018-09-10T00:22:16.440Z,1015.26
2018-09-10T00:23:16.431Z,1015.23
2018-09-10T00:24:16.426Z,1015.27
2018-09-10T00:25:16.424Z,1015.24
2018-09-10T00:26:16.425Z,1015.24
2018-09-10T00:27:16.416Z,1015.15
2018-09-10T00:28:16.419Z,1015.18
2018-09-10T00:29:16.421Z,1015.15
2018-09-10T00:30:16.415Z,1015.14
2018-09-10T00:31:16.413Z,1015.12
2018-09-10T00:32:16.409Z,1015.06
2018-09-10T00:33:16.405Z,1015.13
2018-09-10T00:34:16.402Z,1015.09
2018-09-10T00:35:16.401Z,1015.15
2018-09-10T00:36:16.403Z,1015.21
2018-09-10T00:37:16.399Z,1015.12
2018-09-10T00:38:16.395Z,1015.15
2018-09-10T00:39:16.390Z,1015.17
2018-09-10T00:40:16.397Z,1015.19
2018-09-10T00:41:16.393Z,1015.21
2018-09-10T00:42:16.389Z,1015.20
2018-09-10T00:43:16.387Z,1015.19
2018-09-10T00:44:16.380Z,1015.21
2018-09-10T00:45:16.376Z,1015.21
2018-09-10T00:46:16.376Z,1015.23
2018-09-10T00:47:16.372Z,1015.15
2018-09-10T00:48:16.375Z,1015.18
2018-09-10T00:49:16.373Z,1015.17
2018-09-10T00:50:16.371Z,1015.17
2018-09-10T00:51:16.369Z,1015.24
2018-09-10T00:52:16.363Z,1015.23
2018-09-10T00:53:16.360Z,1015.23
2018-09-10T00:54:16.363Z,1015.22
2018-09-10T00:55:16.358Z,1015.25
2018-09-10T00:56:16.353Z,1015.25
2018-09-10T00:57:16.348Z,1015.25
2018-09-10T00:58:16.347Z,1015.23
2018-09-10T00:59:16.347Z,1015.22
2018-09-10T01:00:16.347Z,1015.24
2018-09-10T01:01:16.344Z,1015.24
2018-09-10T01:02:16.343Z,1015.31
2018-09-10T01:03:16.340Z,1015.31
2018-09-10T01:04:16.333Z,1015.28
2018-09-10T01:05:16.334Z,1015.32
2018-09-10T01:06:16.329Z,1015.37
2018-09-10T01:07:16.327Z,1015.39
2018-09-10T01:08:16.329Z,1015.38
2018-09-10T01:09:16.326Z,1015.36
2018-09-10T01:10:16.319Z,1015.41
2018-09-10T01:11:16.318Z,1015.41
2018-09-10T01:12:16.319Z,1015.46
2018-09-10T01:13:16.317Z,1015.42
2018-09-10T01:14:16.317Z,1015.41
2018-09-10T01:15:16.314Z,1015.42
2018-09-10T01:16:16.307Z,1015.40
2018-09-10T01:17:16.302Z,1015.43
2018-09-10T01:18:16.301Z,1015.40
2018-09-10T01:19:16.300Z,1015.39
2018-09-10T01:20:16.302Z,1015.44
2018-09-10T01:21:16.298Z,1015.42
2018-09-10T01:22:16.296Z,1015.36
2018-09-10T01:23:16.294Z,1015.40
2018-09-10T01:24:16.287Z,1015.38
2018-09-10T01:25:16.286Z,1015.41
2018-09-10T01:26:16.287Z,1015.42
2018-09-10T01:27:16.285Z,1015.40
2018-09-10T01:28:16.278Z,1015.49
2018-09-10T01:29:16.277Z,1015.53
2018-09-10T01:30:16.275Z,1015.56
2018-09-10T01:31:16.274Z,1015.56
2018-09-10T01:32:16.276Z,1015.52
2018-09-10T01:33:16.273Z,1015.57
2018-09-10T01:34:16.274Z,1015.61
2018-09-10T01:35:16.270Z,1015.63
2018-09-10T01:36:16.261Z,1015.68
2018-09-10T01:37:16.259Z,1015.66
2018-09-10T01:38:16.263Z,1015.68
2018-09-10T01:39:16.254Z,1015.70
2018-09-10T01:40:16.256Z,1015.76
2018-09-10T01:41:16.262Z,1015.73
2018-09-10T01:42:16.247Z,1015.73
2018-09-10T01:43:16.246Z,1015.73
2018-09-10T01:44:16.252Z,1015.74
2018-09-10T01:45:16.245Z,1015.72
2018-09-10T01:46:16.243Z,1015.74
2018-09-10T01:47:16.241Z,1015.73
2018-09-10T01:48:16.235Z,1015.73
2018-09-10T01:49:16.230Z,1015.70
2018-09-10T01:50:16.229Z,1015.68
2018-09-10T01:51:16.231Z,1015.67
2018-09-10T01:52:16.235Z,1015.64
2018-09-10T01:53:16.226Z,1015.60
2018-09-10T01:54:16.226Z,1015.59
2018-09-10T01:55:16.220Z,1015.60
2018-09-10T01:56:16.214Z,1015.59
2018-09-10T01:57:16.210Z,1015.63
2018-09-10T01:58:16.212Z,1015.59
2018-09-10T01:59:16.212Z,1015.63
2018-09-10T02:00:16.202Z,1015.59
2018-09-10T02:01:16.200Z,1015.59
2018-09-10T02:02:16.197Z,1015.54
2018-09-10T02:03:16.194Z,1015.57
2018-09-10T02:04:16.197Z,1015.57
2018-09-10T02:05:16.192Z,1015.58
2018-09-10T02:06:16.190Z,1015.60
2018-09-10T02:07:16.188Z,1015.54
2018-09-10T02:08:16.180Z,1015.51
2018-09-10T02:09:16.178Z,1015.54
2018-09-10T02:10:16.173Z,1015.54
2018-09-10T02:11:16.170Z,1015.56
2018-09-10T02:12:16.172Z,1015.56
2018-09-10T02:13:16.168Z,1015.56
2018-09-10T02:14:16.163Z,1015.57
2018-09-10T02:15:16.159Z,1015.56
2018-09-10T02:16:16.161Z,1015.54
2018-09-10T02:17:16.256Z,1015.59
2018-09-10T02:18:16.159Z,1015.58
2018-09-10T02:19:16.155Z,1015.62
2018-09-10T02:20:16.210Z,1015.57
2018-09-10T02:21:16.142Z,1015.64
2018-09-10T02:22:16.140Z,1015.58
2018-09-10T02:23:16.138Z,1015.66
2018-09-10T02:24:16.139Z,1015.60
2018-09-10T02:25:16.135Z,1015.63
2018-09-10T02:26:16.133Z,1015.60
2018-09-10T02:27:16.154Z,1015.55
2018-09-10T02:28:16.125Z,1015.58
2018-09-10T02:29:16.179Z,1015.54
2018-09-10T02:30:16.121Z,1015.54
2018-09-10T02:31:16.118Z,1015.52
2018-09-10T02:32:16.116Z,1015.47
2018-09-10T02:33:16.107Z,1015.46
2018-09-10T02:34:16.103Z,1015.45
2018-09-10T02:35:16.101Z,1015.42
2018-09-10T02:36:16.102Z,1015.46
2018-09-10T02:37:16.102Z,1015.38
2018-09-10T02:38:16.095Z,1015.39
2018-09-10T02:39:16.092Z,1015.35
2018-09-10T02:40:16.085Z,1015.32
2018-09-10T02:41:16.082Z,1015.35
2018-09-10T02:42:16.080Z,1015.32
2018-09-10T02:43:16.077Z,1015.33
2018-09-10T02:44:16.079Z,1015.43
2018-09-10T02:45:16.076Z,1015.43
2018-09-10T02:46:16.066Z,1015.42
2018-09-10T02:47:16.064Z,1015.39
2018-09-10T02:48:16.068Z,1015.39
2018-09-10T02:49:16.065Z,1015.32
2018-09-10T02:50:16.060Z,1015.31
2018-09-10T02:51:16.056Z,1015.35
2018-09-10T02:52:16.050Z,1015.40
2018-09-10T02:53:16.046Z,1015.35
2018-09-10T02:54:16.048Z,1015.32
2018-09-10T02:55:16.112Z,1015.34
2018-09-10T02:56:16.041Z,1015.33
2018-09-10T02:57:16.036Z,1015.34
2018-09-10T02:58:16.037Z,1015.34
2018-09-10T02:59:16.032Z,1015.33
2018-09-10T03:00:16.025Z,1015.36
2018-09-10T03:01:16.021Z,1015.40
2018-09-10T03:02:16.023Z,1015.43
2018-09-10T03:03:16.020Z,1015.47
2018-09-10T03:04:16.014Z,1015.47
2018-09-10T03:05:16.008Z,1015.51
2018-09-10T03:06:16.008Z,1015.53
2018-09-10T03:07:16.005Z,1015.58
2018-09-10T03:08:16.004Z,1015.66
2018-09-10T03:09:16.000Z,1015.66
2018-09-10T03:10:15.998Z,1015.65
2018-09-10T03:11:15.997Z,1015.67
2018-09-10T03:12:15.987Z,1015.65
2018-09-10T03:13:15.984Z,1015.68
2018-09-10T03:14:15.980Z,1015.69
2018-09-10T03:15:15.978Z,1015.68
2018-09-10T03:16:15.980Z,1015.66
2018-09-10T03:17:15.976Z,1015.71
2018-09-10T03:18:15.970Z,1015.74
2018-09-10T03:19:15.967Z,1015.72
2018-09-10T03:20:15.973Z,1015.73
2018-09-10T03:21:15.964Z,1015.69
2018-09-10T03:22:15.961Z,1015.65
2018-09-10T03:23:15.959Z,1015.65
2018-09-10T03:24:15.975Z,1015.75
2018-09-10T03:25:15.947Z,1015.71
2018-09-10T03:26:15.944Z,1015.71
2018-09-10T03:27:15.942Z,1015.69
2018-09-10T03:28:15.946Z,1015.73
2018-09-10T03:29:15.940Z,1015.73
2018-09-10T03:30:15.940Z,1015.76
2018-09-10T03:31:15.938Z,1015.76
2018-09-10T03:32:15.927Z,1015.79
2018-09-10T03:33:15.924Z,1015.76
2018-09-10T03:34:15.925Z,1015.78
2018-09-10T03:35:15.924Z,1015.83
2018-09-10T03:36:15.920Z,1015.83
2018-09-10T03:37:15.913Z,1015.88
2018-09-10T03:38:15.907Z,1015.91
2018-09-10T03:39:15.912Z,1015.93
2018-09-10T03:40:15.907Z,1015.94
2018-09-10T03:41:15.903Z,1015.93
2018-09-10T03:42:15.901Z,1015.92
2018-09-10T03:43:15.900Z,1015.89
2018-09-10T03:44:15.947Z,1015.92
2018-09-10T03:45:15.891Z,1015.94
2018-09-10T03:46:15.885Z,1015.90
2018-09-10T03:47:15.922Z,1015.96
2018-09-10T03:48:15.887Z,1016.02
2018-09-10T03:49:15.881Z,1016.02
2018-09-10T03:50:15.882Z,1016.04
2018-09-10T03:51:15.869Z,1016.04
2018-09-10T03:52:15.873Z,1016.09
2018-09-10T03:53:15.869Z,1016.07
2018-09-10T03:54:15.866Z,1016.13
2018-09-10T03:55:15.862Z,1016.15
2018-09-10T03:56:15.855Z,1016.13
2018-09-10T03:57:15.851Z,1016.16
2018-09-10T03:58:15.853Z,1016.18
2018-09-10T03:59:15.846Z,1016.18
2018-09-10T04:00:15.848Z,1016.21
2018-09-10T04:01:15.848Z,1016.15
2018-09-10T04:02:15.845Z,1016.18
2018-09-10T04:03:15.840Z,1016.22
2018-09-10T04:04:15.833Z,1016.17
2018-09-10T04:05:15.829Z,1016.19
2018-09-10T04:06:15.839Z,1016.17
2018-09-10T04:07:15.829Z,1016.18
2018-09-10T04:08:15.821Z,1016.15
2018-09-10T04:09:15.816Z,1016.19
2018-09-10T04:10:15.815Z,1016.24
2018-09-10T04:11:15.812Z,1016.27
2018-09-10T04:12:15.812Z,1016.21
2018-09-10T04:13:15.810Z,1016.24
2018-09-10T04:14:15.807Z,1016.23
2018-09-10T04:15:15.807Z,1016.26
2018-09-10T04:16:15.798Z,1016.25
2018-09-10T04:17:15.887Z,1016.28
2018-09-10T04:18:15.790Z,1016.31
2018-09-10T04:19:15.789Z,1016.29
2018-09-10T04:20:15.850Z,1016.32
2018-09-10T04:21:15.787Z,1016.28
2018-09-10T04:22:15.779Z,1016.27
2018-09-10T04:23:15.776Z,1016.24
2018-09-10T04:24:15.779Z,1016.27
2018-09-10T04:25:15.775Z,1016.23
2018-09-10T04:26:15.774Z,1016.24
2018-09-10T04:27:15.772Z,1016.23
2018-09-10T04:28:15.763Z,1016.18
2018-09-10T04:29:15.759Z,1016.22
2018-09-10T04:30:15.756Z,1016.18
2018-09-10T04:31:15.757Z,1016.18
2018-09-10T04:32:15.757Z,1016.22
2018-09-10T04:33:15.753Z,1016.26
2018-09-10T04:34:15.749Z,1016.27
2018-09-10T04:35:15.748Z,1016.27
2018-09-10T04:36:15.835Z,1016.23
2018-09-10T04:37:15.736Z,1016.21
2018-09-10T04:38:15.738Z,1016.17
2018-09-10T04:39:15.735Z,1016.20
2018-09-10T04:40:15.728Z,1016.24
2018-09-10T04:41:15.725Z,1016.24
2018-09-10T04:42:15.809Z,1016.26
2018-09-10T04:43:15.720Z,1016.21
2018-09-10T04:44:15.722Z,1016.24
2018-09-10T04:45:15.718Z,1016.19
2018-09-10T04:46:15.717Z,1016.21
2018-09-10T04:47:15.719Z,1016.18
2018-09-10T04:48:15.705Z,1016.20
2018-09-10T04:49:15.701Z,1016.16
2018-09-10T04:50:15.702Z,1016.22
2018-09-10T04:51:15.696Z,1016.16
2018-09-10T04:52:15.697Z,1016.16
2018-09-10T04:53:15.694Z,1016.14
2018-09-10T04:54:15.688Z,1016.17
2018-09-10T04:55:15.685Z,1016.19
2018-09-10T04:56:15.686Z,1016.20
2018-09-10T04:57:15.688Z,1016.30
2018-09-10T04:58:15.768Z,1016.31
2018-09-10T04:59:15.677Z,1016.33
2018-09-10T05:00:15.669Z,1016.33
2018-09-10T05:01:15.666Z,1016.33
2018-09-10T05:02:15.664Z,1016.41
2018-09-10T05:03:15.663Z,1016.36
2018-09-10T05:04:15.663Z,1016.37
2018-09-10T05:05:15.657Z,1016.40
2018-09-10T05:06:15.655Z,1016.46
2018-09-10T05:07:15.656Z,1016.42
2018-09-10T05:08:15.647Z,1016.47
2018-09-10T05:09:15.643Z,1016.43
2018-09-10T05:10:15.645Z,1016.44
2018-09-10T05:11:15.640Z,1016.37
2018-09-10T05:12:15.632Z,1016.42
2018-09-10T05:13:15.630Z,1016.44
2018-09-10T05:14:15.656Z,1016.39
2018-09-10T05:15:15.627Z,1016.39
2018-09-10T05:16:15.627Z,1016.45
2018-09-10T05:17:15.622Z,1016.54
2018-09-10T05:18:15.619Z,1016.49
2018-09-10T05:19:15.619Z,1016.50
2018-09-10T05:20:15.610Z,1016.59
2018-09-10T05:21:15.605Z,1016.56
2018-09-10T05:22:15.603Z,1016.55
2018-09-10T05:23:15.600Z,1016.59
2018-09-10T05:24:15.601Z,1016.62
2018-09-10T05:25:15.598Z,1016.63
2018-09-10T05:26:15.589Z,1016.60
2018-09-10T05:27:15.587Z,1016.62
2018-09-10T05:28:15.612Z,1016.65
2018-09-10T05:29:15.585Z,1016.63
2018-09-10T05:30:15.583Z,1016.55
2018-09-10T05:31:15.580Z,1016.49
2018-09-10T05:32:15.572Z,1016.45
2018-09-10T05:33:15.569Z,1016.51
2018-09-10T05:34:15.565Z,1016.48
2018-09-10T05:35:15.562Z,1016.51
2018-09-10T05:36:15.564Z,1016.55
2018-09-10T05:37:15.560Z,1016.56
2018-09-10T05:38:15.558Z,1016.56
2018-09-10T05:39:15.556Z,1016.58
2018-09-10T05:40:15.549Z,1016.63
2018-09-10T05:41:15.545Z,1016.66
2018-09-10T05:42:15.546Z,1016.66
2018-09-10T05:43:15.544Z,1016.72
2018-09-10T05:44:15.539Z,1016.67
2018-09-10T05:45:15.534Z,1016.65
2018-09-10T05:46:15.529Z,1016.67
2018-09-10T05:47:15.527Z,1016.60
2018-09-10T05:48:15.529Z,1016.59
2018-09-10T05:49:15.525Z,1016.59
2018-09-10T05:50:15.523Z,1016.61
2018-09-10T05:51:15.520Z,1016.65
2018-09-10T05:52:15.512Z,1016.68
2018-09-10T05:53:15.525Z,1016.72
2018-09-10T05:54:15.507Z,1016.76
2018-09-10T05:55:15.504Z,1016.78
2018-09-10T05:56:15.507Z,1016.87
2018-09-10T05:57:15.502Z,1016.89
2018-09-10T05:58:15.496Z,1016.95
2018-09-10T05:59:15.493Z,1016.97
2018-09-10T06:00:15.495Z,1017.03
2018-09-10T06:01:15.491Z,1017.05
2018-09-10T06:02:15.490Z,1017.06
2018-09-10T06:03:15.484Z,1017.09
2018-09-10T06:04:15.479Z,1017.13
2018-09-10T06:05:15.474Z,1017.20
2018-09-10T06:06:15.473Z,1017.23
2018-09-10T06:07:15.469Z,1017.25
2018-09-10T06:08:15.472Z,1017.25
2018-09-10T06:09:15.467Z,1017.28
2018-09-10T06:10:15.467Z,1017.24
2018-09-10T06:11:15.464Z,1017.26
2018-09-10T06:12:15.456Z,1017.26
2018-09-10T06:13:15.454Z,1017.25
2018-09-10T06:14:15.456Z,1017.26
2018-09-10T06:15:15.455Z,1017.33
2018-09-10T06:16:15.449Z,1017.31
2018-09-10T06:17:15.442Z,1017.27
2018-09-10T06:18:15.440Z,1017.29
2018-09-10T06:19:15.438Z,1017.28
2018-09-10T06:20:15.440Z,1017.28
2018-09-10T06:21:15.437Z,1017.20
2018-09-10T06:22:15.435Z,1017.15
2018-09-10T06:23:15.432Z,1017.16
2018-09-10T06:24:15.425Z,1017.10
2018-09-10T06:25:15.427Z,1017.10
2018-09-10T06:26:15.419Z,1017.08
2018-09-10T06:27:15.418Z,1017.07
2018-09-10T06:28:15.421Z,1017.04
2018-09-10T06:29:15.417Z,1017.05
2018-09-10T06:30:15.438Z,1017.05
2018-09-10T06:31:15.410Z,1017.07
2018-09-10T06:32:15.411Z,1017.07
2018-09-10T06:33:15.408Z,1017.12
2018-09-10T06:34:15.493Z,1017.08
2018-09-10T06:35:15.403Z,1017.09
2018-09-10T06:36:15.408Z,1017.01
2018-09-10T06:37:15.520Z,1017.02
2018-09-10T06:38:15.392Z,1017.01
2018-09-10T06:39:15.389Z,1017.03
2018-09-10T06:40:15.393Z,1017.04
2018-09-10T06:41:15.390Z,1017.08
2018-09-10T06:42:15.386Z,1017.11
2018-09-10T06:43:15.390Z,1017.18
2018-09-10T06:44:15.379Z,1017.20
2018-09-10T06:45:15.376Z,1017.27
2018-09-10T06:46:15.380Z,1017.24
2018-09-10T06:47:15.377Z,1017.24
2018-09-10T06:48:15.370Z,1017.30
2018-09-10T06:49:15.367Z,1017.24
2018-09-10T06:50:15.371Z,1017.23
2018-09-10T06:51:15.364Z,1017.23
2018-09-10T06:52:15.367Z,1017.15
2018-09-10T06:53:15.365Z,1017.09
2018-09-10T06:54:15.365Z,1017.12
2018-09-10T06:55:15.361Z,1017.03
2018-09-10T06:56:15.353Z,1017.03
2018-09-10T06:57:15.351Z,1017.03
2018-09-10T06:58:15.350Z,1017.09
2018-09-10T06:59:15.349Z,1017.06
2018-09-10T07:00:15.426Z,1017.03
2018-09-10T07:01:15.348Z,1017.11
2018-09-10T07:02:15.342Z,1017.09
2018-09-10T07:03:15.340Z,1017.08
2018-09-10T07:04:15.344Z,1017.12
2018-09-10T07:05:15.343Z,1017.16
2018-09-10T07:06:15.342Z,1017.13
2018-09-10T07:07:15.339Z,1017.13
2018-09-10T07:08:15.333Z,1017.14
2018-09-10T07:09:15.332Z,1017.17
2018-09-10T07:10:15.328Z,1017.24
2018-09-10T07:11:15.326Z,1017.32
2018-09-10T07:12:15.330Z,1017.41
2018-09-10T07:13:15.369Z,1017.40
2018-09-10T07:14:15.325Z,1017.37
2018-09-10T07:15:15.325Z,1017.45
2018-09-10T07:16:15.320Z,1017.47
2018-09-10T07:17:15.317Z,1017.54
2018-09-10T07:18:15.321Z,1017.53
2018-09-10T07:19:15.321Z,1017.54
2018-09-10T07:20:15.315Z,1017.47
2018-09-10T07:21:15.314Z,1017.46
2018-09-10T07:22:15.313Z,1017.42
2018-09-10T07:23:15.316Z,1017.44
2018-09-10T07:24:15.315Z,1017.43
2018-09-10T07:25:15.315Z,1017.40
2018-09-10T07:26:15.317Z,1017.49
2018-09-10T07:27:15.315Z,1017.52
2018-09-10T07:28:15.309Z,1017.53
2018-09-10T07:29:15.307Z,1017.52
2018-09-10T07:30:15.308Z,1017.59
2018-09-10T07:31:15.306Z,1017.64
2018-09-10T07:32:15.311Z,1017.62
2018-09-10T07:33:15.312Z,1017.64
2018-09-10T07:34:15.309Z,1017.71
2018-09-10T07:35:15.305Z,1017.66
2018-09-10T07:36:15.309Z,1017.58
2018-09-10T07:37:15.308Z,1017.59
2018-09-10T07:38:15.310Z,1017.55
2018-09-10T07:39:15.311Z,1017.56
2018-09-10T07:40:15.306Z,1017.56
2018-09-10T07:41:15.305Z,1017.57
2018-09-10T07:42:15.311Z,1017.66
2018-09-10T07:43:15.310Z,1017.58
2018-09-10T07:44:15.413Z,1017.58
2018-09-10T07:45:15.306Z,1017.51
2018-09-10T07:46:15.314Z,1017.55
2018-09-10T07:47:15.312Z,1017.63
2018-09-10T07:48:15.315Z,1017.53
2018-09-10T07:49:15.317Z,1017.48
2018-09-10T07:50:15.312Z,1017.49
2018-09-10T07:51:15.313Z,1017.56
2018-09-10T07:52:15.319Z,1017.66
2018-09-10T07:53:15.320Z,1017.74
2018-09-10T07:54:15.320Z,1017.70
2018-09-10T07:55:15.323Z,1017.66
2018-09-10T07:56:15.319Z,1017.62
2018-09-10T07:57:15.321Z,1017.64
2018-09-10T07:58:15.324Z,1017.61
2018-09-10T07:59:15.325Z,1017.65
2018-09-10T08:00:15.332Z,1017.62
2018-09-10T08:01:15.332Z,1017.59
2018-09-10T08:02:15.336Z,1017.57
2018-09-10T08:03:15.339Z,1017.51
2018-09-10T08:04:15.339Z,1017.49
2018-09-10T08:05:15.342Z,1017.52
2018-09-10T08:06:15.343Z,1017.52
2018-09-10T08:07:15.345Z,1017.55
2018-09-10T08:08:15.342Z,1017.52
2018-09-10T08:09:15.384Z,1017.55
2018-09-10T08:10:15.350Z,1017.59
2018-09-10T08:11:15.353Z,1017.60
2018-09-10T08:12:15.355Z,1017.63
2018-09-10T08:13:15.357Z,1017.70
2018-09-10T08:14:15.359Z,1017.75
2018-09-10T08:15:15.365Z,1017.61
2018-09-10T08:16:15.359Z,1017.63
2018-09-10T08:17:15.361Z,1017.74
2018-09-10T08:18:15.363Z,1017.81
2018-09-10T08:19:15.367Z,1017.90
2018-09-10T08:20:15.372Z,1017.97
2018-09-10T08:21:15.374Z,1017.94
2018-09-10T08:22:15.373Z,1018.05
2018-09-10T08:23:15.378Z,1018.01
2018-09-10T08:24:15.426Z,1018.08
2018-09-10T08:25:15.415Z,1018.10
2018-09-10T08:26:15.389Z,1018.19
2018-09-10T08:27:15.392Z,1018.29
2018-09-10T08:28:15.392Z,1018.36
2018-09-10T08:29:15.396Z,1018.28
2018-09-10T08:30:15.458Z,1018.23
2018-09-10T08:31:15.407Z,1018.25
2018-09-10T08:32:15.417Z,1018.29
2018-09-10T08:33:15.422Z,1018.22
2018-09-10T08:34:15.429Z,1018.26
2018-09-10T08:35:15.434Z,1018.35
2018-09-10T08:36:15.437Z,1018.31
2018-09-10T08:37:15.443Z,1018.29
2018-09-10T08:38:15.455Z,1018.29
2018-09-10T08:39:15.463Z,1018.21
2018-09-10T08:40:15.465Z,1018.22
2018-09-10T08:41:15.472Z,1018.14
2018-09-10T08:42:15.481Z,1018.16
2018-09-10T08:43:15.487Z,1018.19
2018-09-10T08:44:15.501Z,1018.20
2018-09-10T08:45:15.511Z,1018.21
2018-09-10T08:46:15.517Z,1018.20
2018-09-10T08:47:15.526Z,1018.16
2018-09-10T08:48:15.540Z,1018.11
2018-09-10T08:49:15.533Z,1018.13
2018-09-10T08:50:15.540Z,1018.12
2018-09-10T08:51:15.548Z,1018.14
2018-09-10T08:52:15.558Z,1018.11
2018-09-10T08:53:15.565Z,1018.18
2018-09-10T08:54:15.760Z,1018.15
2018-09-10T08:55:15.690Z,1018.11
2018-09-10T08:56:15.856Z,1018.08
2018-09-10T08:57:15.593Z,1018.06
2018-09-10T08:58:15.598Z,1018.05
2018-09-10T08:59:15.605Z,1018.03
2018-09-10T09:00:15.609Z,1018.05
2018-09-10T09:01:15.611Z,1018.03
2018-09-10T09:02:15.617Z,1018.07
2018-09-10T09:03:15.622Z,1018.06
2018-09-10T09:04:15.633Z,1018.10
2018-09-10T09:05:15.639Z,1018.13
2018-09-10T09:06:15.669Z,1018.18
2018-09-10T09:07:15.650Z,1018.22
2018-09-10T09:08:15.652Z,1018.35
2018-09-10T09:09:15.656Z,1018.25
2018-09-10T09:10:15.666Z,1018.22
2018-09-10T09:11:15.670Z,1018.46
2018-09-10T09:12:15.673Z,1018.30
2018-09-10T09:13:15.676Z,1018.29
2018-09-10T09:14:15.682Z,1018.56
2018-09-10T09:15:15.688Z,1018.67
2018-09-10T09:16:15.699Z,1018.70
2018-09-10T09:17:15.708Z,1018.76
2018-09-10T09:18:15.711Z,1018.65
2018-09-10T09:19:15.718Z,1018.70
2018-09-10T09:20:15.721Z,1018.71
2018-09-10T09:21:15.728Z,1018.73
2018-09-10T09:22:15.736Z,1018.60
2018-09-10T09:23:15.787Z,1018.60
2018-09-10T09:24:15.757Z,1018.58
2018-09-10T09:25:15.767Z,1018.48
2018-09-10T09:26:15.772Z,1018.49
2018-09-10T09:27:15.782Z,1018.49
2018-09-10T09:28:15.796Z,1018.55
2018-09-10T09:29:15.804Z,1018.41
2018-09-10T09:30:15.899Z,1018.32
2018-09-10T09:31:15.825Z,1018.26
2018-09-10T09:32:15.830Z,1018.34
2018-09-10T09:33:15.841Z,1018.51
2018-09-10T09:34:15.851Z,1018.67
2018-09-10T09:35:15.861Z,1018.73
2018-09-10T09:36:15.913Z,1018.75
2018-09-10T09:37:15.884Z,1019.07
2018-09-10T09:38:15.894Z,1019.21
2018-09-10T09:39:15.905Z,1019.30
2018-09-10T09:40:15.911Z,1018.95
2018-09-10T09:41:15.923Z,1019.03
2018-09-10T09:42:15.938Z,1018.84
2018-09-10T09:43:15.994Z,1018.97
2018-09-10T09:44:15.958Z,1019.21
2018-09-10T09:45:15.970Z,1019.18
2018-09-10T09:46:15.981Z,1019.02
2018-09-10T09:47:15.996Z,1018.86
2018-09-10T09:48:16.014Z,1018.43
2018-09-10T09:49:16.026Z,1018.49
2018-09-10T09:50:16.038Z,1018.72
2018-09-10T09:51:16.093Z,1018.55
2018-09-10T09:52:16.061Z,1018.54
2018-09-10T09:53:16.073Z,1018.46
2018-09-10T09:54:16.086Z,1018.40
2018-09-10T09:55:16.101Z,1018.48
2018-09-10T09:56:16.119Z,1018.38
2018-09-10T09:57:16.131Z,1018.35
2018-09-10T09:58:16.139Z,1018.30
2018-09-10T09:59:16.151Z,1018.27
2018-09-10T10:00:16.170Z,1018.30
2018-09-10T10:01:16.181Z,1018.26
2018-09-10T10:02:16.192Z,1018.25
2018-09-10T10:03:16.207Z,1018.28
2018-09-10T10:04:16.265Z,1018.33
2018-09-10T10:05:16.222Z,1018.26
2018-09-10T10:06:16.234Z,1018.25
2018-09-10T10:07:16.245Z,1018.21
2018-09-10T10:08:16.261Z,1018.29
2018-09-10T10:09:16.271Z,1018.31
2018-09-10T10:10:16.333Z,1018.43
2018-09-10T10:11:16.296Z,1018.39
2018-09-10T10:12:16.449Z,1018.41
2018-09-10T10:13:16.307Z,1018.33
2018-09-10T10:14:16.322Z,1018.32
2018-09-10T10:15:16.332Z,1018.38
2018-09-10T10:16:16.366Z,1018.33
2018-09-10T10:17:16.346Z,1018.35
2018-09-10T10:18:16.355Z,1018.37
2018-09-10T10:19:16.365Z,1018.44
2018-09-10T10:20:16.378Z,1018.54
2018-09-10T10:21:16.386Z,1018.40
2018-09-10T10:22:16.405Z,1018.32
2018-09-10T10:23:16.407Z,1018.29
2018-09-10T10:24:16.409Z,1018.30
2018-09-10T10:25:16.416Z,1018.38
2018-09-10T10:26:16.426Z,1018.37
2018-09-10T10:27:16.436Z,1018.46
2018-09-10T10:28:16.583Z,1018.43
2018-09-10T10:29:16.457Z,1018.41
2018-09-10T10:30:16.462Z,1018.42
2018-09-10T10:31:16.469Z,1018.40
2018-09-10T10:32:16.483Z,1018.41
2018-09-10T10:33:16.491Z,1018.42
2018-09-10T10:34:16.500Z,1018.38
2018-09-10T10:35:16.509Z,1018.37
2018-09-10T10:36:16.513Z,1018.32
2018-09-10T10:37:16.521Z,1018.36
2018-09-10T10:38:16.532Z,1018.30
2018-09-10T10:39:16.552Z,1018.30
2018-09-10T10:40:16.553Z,1018.22
2018-09-10T10:41:16.560Z,1018.13
2018-09-10T10:42:16.569Z,1018.18
2018-09-10T10:43:16.579Z,1018.13
2018-09-10T10:44:16.582Z,1018.08
2018-09-10T10:45:16.590Z,1018.06
2018-09-10T10:46:16.602Z,1018.16
2018-09-10T10:47:16.616Z,1018.19
2018-09-10T10:48:16.616Z,1018.17
2018-09-10T10:49:16.621Z,1018.14
2018-09-10T10:50:16.626Z,1018.18
2018-09-10T10:51:16.633Z,1018.14
2018-09-10T10:52:16.646Z,1018.18
2018-09-10T10:53:16.651Z,1018.22
2018-09-10T10:54:16.660Z,1018.20
2018-09-10T10:55:16.666Z,1018.16
2018-09-10T10:56:16.669Z,1018.14
2018-09-10T10:57:16.677Z,1018.15
2018-09-10T10:58:16.681Z,1018.17
2018-09-10T10:59:16.687Z,1018.15
2018-09-10T11:00:16.698Z,1018.17
2018-09-10T11:01:16.754Z,1018.17
2018-09-10T11:02:16.710Z,1018.20
2018-09-10T11:03:16.711Z,1018.27
2018-09-10T11:04:16.793Z,1018.26
2018-09-10T11:05:16.727Z,1018.24
2018-09-10T11:06:16.733Z,1018.21
2018-09-10T11:07:16.740Z,1018.23
2018-09-10T11:08:16.742Z,1018.14
2018-09-10T11:09:16.747Z,1018.19
2018-09-10T11:10:16.753Z,1018.16
2018-09-10T11:11:16.758Z,1018.15
2018-09-10T11:12:16.769Z,1018.17
2018-09-10T11:13:16.774Z,1018.16
2018-09-10T11:14:16.779Z,1018.14
2018-09-10T11:15:16.785Z,1018.09
2018-09-10T11:16:16.785Z,1018.10
2018-09-10T11:17:16.791Z,1018.06
2018-09-10T11:18:16.801Z,1018.02
2018-09-10T11:19:16.806Z,1017.97
2018-09-10T11:20:16.808Z,1017.96
2018-09-10T11:21:16.815Z,1018.04
2018-09-10T11:22:16.838Z,1018.05
2018-09-10T11:23:16.824Z,1018.04
2018-09-10T11:24:16.834Z,1018.03
2018-09-10T11:25:16.838Z,1018.04
2018-09-10T11:26:16.842Z,1018.01
2018-09-10T11:27:16.849Z,1018.05
2018-09-10T11:28:16.849Z,1018.08
2018-09-10T11:29:16.854Z,1018.05
2018-09-10T11:30:16.859Z,1018.03
2018-09-10T11:31:16.862Z,1018.02
2018-09-10T11:32:16.872Z,1017.99
2018-09-10T11:33:16.878Z,1017.98
2018-09-10T11:34:16.879Z,1017.98
2018-09-10T11:35:16.883Z,1018.00
2018-09-10T11:36:16.891Z,1017.96
2018-09-10T11:37:16.896Z,1017.92
2018-09-10T11:38:16.904Z,1017.92
2018-09-10T11:39:16.906Z,1017.89
2018-09-10T11:40:16.906Z,1017.91
2018-09-10T11:41:16.913Z,1017.89
2018-09-10T11:42:16.914Z,1017.90
2018-09-10T11:43:16.919Z,1017.88
2018-09-10T11:44:16.929Z,1017.96
2018-09-10T11:45:16.933Z,1017.93
2018-09-10T11:46:16.938Z,1017.92
2018-09-10T11:47:16.942Z,1017.94
2018-09-10T11:48:16.943Z,1017.96
2018-09-10T11:49:16.946Z,1017.94
2018-09-10T11:50:16.955Z,1017.98
2018-09-10T11:51:16.961Z,1018.00
2018-09-10T11:52:16.997Z,1018.00
2018-09-10T11:53:16.965Z,1017.95
2018-09-10T11:54:16.973Z,1017.94
2018-09-10T11:55:16.975Z,1017.93
2018-09-10T11:56:16.987Z,1017.93
2018-09-10T11:57:16.992Z,1017.93
2018-09-10T11:58:16.994Z,1017.94
2018-09-10T11:59:16.999Z,1017.98
2018-09-10T12:00:17.000Z,1017.98
2018-09-10T12:01:17.003Z,1017.98
2018-09-10T12:02:17.014Z,1017.93
2018-09-10T12:03:17.013Z,1017.91
2018-09-10T12:04:17.023Z,1017.90
2018-09-10T12:05:17.028Z,1017.94